createdAt,value
2022-08-20T00:01:48.158Z,7.10
2022-08-20T00:04:16.939Z,7.20
2022-08-20T00:06:45.382Z,7.68
2022-08-20T00:09:13.389Z,7.55
2022-08-20T00:11:42.710Z,7.55
2022-08-20T00:14:10.829Z,6.78
2022-08-20T00:16:39.029Z,7.30
2022-08-20T00:19:09.405Z,7.32
2022-08-20T00:21:38.112Z,6.63
2022-08-20T00:24:06.509Z,6.90
2022-08-20T00:26:34.558Z,7.20
2022-08-20T00:29:06.166Z,7.03
2022-08-20T00:31:34.173Z,7.43
2022-08-20T00:34:02.332Z,7.85
2022-08-20T00:36:33.008Z,7.57
2022-08-20T00:39:01.965Z,8.05
2022-08-20T00:41:31.015Z,7.70
2022-08-20T00:44:10.636Z,7.47
2022-08-20T00:46:39.691Z,7.15
2022-08-20T00:49:09.869Z,6.85
2022-08-20T00:51:43.511Z,7.22
2022-08-20T00:54:17.236Z,7.45
2022-08-20T00:56:52.689Z,7.78
2022-08-20T00:59:26.755Z,7.32
2022-08-20T01:01:56.573Z,6.90
2022-08-20T01:04:26.852Z,7.57
2022-08-20T01:06:55.032Z,7.25
2022-08-20T01:09:50.158Z,7.50
2022-08-20T01:12:11.691Z,7.30
2022-08-20T01:14:45.938Z,6.90
2022-08-20T01:17:18.641Z,6.55
2022-08-20T01:19:52.686Z,6.47
2022-08-20T01:22:46.210Z,6.85
2022-08-20T01:25:20.528Z,6.70
2022-08-20T01:27:55.130Z,7.60
2022-08-20T01:30:24.734Z,8.40
2022-08-20T01:32:52.680Z,7.55
2022-08-20T01:35:22.610Z,6.70
2022-08-20T01:37:50.637Z,6.88
2022-08-20T01:40:29.008Z,6.60
2022-08-20T01:42:59.489Z,6.43
2022-08-20T01:45:30.309Z,6.55
2022-08-20T01:47:59.140Z,6.85
2022-08-20T01:50:29.885Z,7.00
2022-08-20T01:53:04.539Z,6.97
2022-08-20T01:55:32.831Z,6.43
2022-08-20T01:58:02.650Z,6.38
2022-08-20T02:00:32.594Z,6.35
2022-08-20T02:03:00.627Z,7.00
2022-08-20T02:05:30.512Z,6.80
2022-08-20T02:07:58.871Z,6.85
2022-08-20T02:10:27.110Z,6.78
2022-08-20T02:13:00.275Z,6.90
2022-08-20T02:15:34.559Z,6.60
2022-08-20T02:18:08.212Z,7.75
2022-08-20T02:20:37.460Z,7.60
2022-08-20T02:23:07.249Z,6.88
2022-08-20T02:25:37.687Z,6.82
2022-08-20T02:28:09.160Z,6.13
2022-08-20T02:30:41.934Z,6.97
2022-08-20T02:33:13.145Z,7.50
2022-08-20T02:35:42.736Z,6.28
2022-08-20T02:38:10.905Z,6.93
2022-08-20T02:40:40.072Z,6.45
2022-08-20T02:43:08.044Z,6.28
2022-08-20T02:45:40.267Z,6.85
2022-08-20T02:48:09.606Z,6.43
2022-08-20T02:50:37.546Z,6.95
2022-08-20T02:53:05.527Z,6.38
2022-08-20T02:55:33.485Z,6.88
2022-08-20T02:58:01.920Z,6.22
2022-08-20T03:00:38.478Z,6.60
2022-08-20T03:03:08.233Z,6.88
2022-08-20T03:05:39.433Z,6.65
2022-08-20T03:08:09.545Z,7.35
2022-08-20T03:10:39.101Z,6.80
2022-08-20T03:13:12.298Z,6.78
2022-08-20T03:15:42.513Z,6.72
2022-08-20T03:18:11.263Z,7.13
2022-08-20T03:20:40.749Z,6.65
2022-08-20T03:23:09.035Z,6.80
2022-08-20T03:25:37.381Z,7.00
2022-08-20T03:28:05.808Z,6.65
2022-08-20T03:30:34.152Z,7.00
2022-08-20T03:33:02.518Z,6.95
2022-08-20T03:35:31.790Z,7.03
2022-08-20T03:38:01.556Z,7.70
2022-08-20T03:40:33.448Z,6.85
2022-08-20T03:43:02.347Z,6.80
2022-08-20T03:45:32.602Z,7.10
2022-08-20T03:48:01.724Z,6.43
2022-08-20T03:50:32.273Z,6.40
2022-08-20T03:53:02.558Z,6.35
2022-08-20T03:55:32.312Z,6.63
2022-08-20T03:58:03.143Z,6.35
2022-08-20T04:00:34.300Z,6.57
2022-08-20T04:03:03.688Z,6.25
2022-08-20T04:05:33.556Z,6.45
2022-08-20T04:08:04.241Z,6.43
2022-08-20T04:10:32.411Z,6.18
2022-08-20T04:13:00.541Z,6.10
2022-08-20T04:15:29.651Z,6.53
2022-08-20T04:17:59.788Z,6.18
2022-08-20T04:20:28.897Z,6.75
2022-08-20T04:22:59.297Z,6.80
2022-08-20T04:25:35.884Z,6.85
2022-08-20T04:28:08.271Z,6.97
2022-08-20T04:30:36.789Z,6.22
2022-08-20T04:33:05.104Z,6.45
2022-08-20T04:35:33.163Z,6.28
2022-08-20T04:38:03.635Z,6.88
2022-08-20T04:40:50.628Z,6.70
2022-08-20T04:43:19.776Z,6.75
2022-08-20T04:45:48.507Z,7.40
2022-08-20T04:48:16.595Z,6.93
2022-08-20T04:50:47.076Z,6.65
2022-08-20T04:53:20.684Z,7.43
2022-08-20T04:55:54.553Z,7.50
2022-08-20T04:58:24.695Z,7.18
2022-08-20T05:00:55.386Z,7.40
2022-08-20T05:03:25.060Z,6.45
2022-08-20T05:05:53.620Z,6.75
2022-08-20T05:08:23.088Z,6.85
2022-08-20T05:11:06.746Z,6.95
2022-08-20T05:13:42.861Z,7.15
2022-08-20T05:16:11.370Z,7.00
2022-08-20T05:18:39.347Z,7.93
2022-08-20T05:21:07.609Z,7.57
2022-08-20T05:23:42.919Z,7.47
2022-08-20T05:26:13.169Z,7.28
2022-08-20T05:28:54.162Z,7.53
2022-08-20T05:31:30.877Z,7.35
2022-08-20T05:34:01.827Z,8.23
2022-08-20T05:36:30.140Z,7.50
2022-08-20T05:38:58.189Z,7.30
2022-08-20T05:41:30.258Z,7.03
2022-08-20T05:44:01.108Z,7.38
2022-08-20T05:46:29.573Z,7.13
2022-08-20T05:48:59.584Z,7.45
2022-08-20T05:51:28.359Z,8.02
2022-08-20T05:53:58.023Z,7.63
2022-08-20T05:56:31.244Z,7.28
2022-08-20T05:59:02.587Z,7.30
2022-08-20T06:01:31.510Z,6.97
2022-08-20T06:04:17.682Z,7.10
2022-08-20T06:06:47.262Z,7.43
2022-08-20T06:09:30.596Z,7.10
2022-08-20T06:12:02.373Z,6.88
2022-08-20T06:14:31.013Z,6.95
2022-08-20T06:17:04.880Z,6.70
2022-08-20T06:19:34.141Z,6.93
2022-08-20T06:22:08.629Z,6.78
2022-08-20T06:24:48.239Z,7.97
2022-08-20T06:27:18.021Z,7.07
2022-08-20T06:29:46.373Z,7.18
2022-08-20T06:32:15.680Z,8.27
2022-08-20T06:34:49.851Z,7.97
2022-08-20T06:37:21.609Z,7.30
2022-08-20T06:39:49.648Z,7.13
2022-08-20T06:42:20.674Z,6.93
2022-08-20T06:44:49.571Z,6.60
2022-08-20T06:47:18.639Z,7.68
2022-08-20T06:49:47.587Z,7.38
2022-08-20T06:52:17.137Z,6.90
2022-08-20T06:54:45.348Z,7.70
2022-08-20T06:57:13.927Z,7.03
2022-08-20T06:59:43.301Z,7.63
2022-08-20T07:02:11.409Z,6.88
2022-08-20T07:04:39.386Z,7.60
2022-08-20T07:07:07.474Z,7.18
2022-08-20T07:09:35.503Z,7.45
2022-08-20T07:12:03.777Z,8.10
2022-08-20T07:14:31.787Z,10.25
2022-08-20T07:17:03.568Z,9.63
2022-08-20T07:19:31.769Z,9.77
2022-08-20T07:21:59.937Z,9.85
2022-08-20T07:24:33.312Z,9.63
2022-08-20T07:27:22.343Z,10.32
2022-08-20T07:30:12.729Z,10.35
2022-08-20T07:32:45.432Z,10.27
2022-08-20T07:35:17.444Z,9.63
2022-08-20T07:37:48.380Z,9.63
2022-08-20T07:40:25.741Z,9.05
2022-08-20T07:42:55.147Z,8.90
2022-08-20T07:45:24.442Z,7.85
2022-08-20T07:47:54.282Z,8.23
2022-08-20T07:50:25.037Z,8.18
2022-08-20T07:52:53.904Z,8.35
2022-08-20T07:55:22.986Z,11.00
2022-08-20T07:57:51.932Z,9.88
2022-08-20T08:00:22.128Z,11.00
2022-08-20T08:02:50.228Z,11.10
2022-08-20T08:05:19.875Z,11.90
2022-08-20T08:07:47.978Z,11.70
2022-08-20T08:10:19.723Z,10.57
2022-08-20T08:12:52.071Z,10.85
2022-08-20T08:15:25.483Z,9.95
2022-08-20T08:17:55.742Z,10.00
2022-08-20T08:20:25.188Z,10.48
2022-08-20T08:22:53.806Z,10.25
2022-08-20T08:25:22.206Z,10.18
2022-08-20T08:27:50.367Z,7.57
2022-08-20T08:30:18.550Z,7.75
2022-08-20T08:33:04.206Z,7.90
2022-08-20T08:35:34.321Z,8.57
2022-08-20T08:38:02.791Z,8.50
2022-08-20T08:40:32.127Z,8.48
2022-08-20T08:43:04.121Z,7.95
2022-08-20T08:45:43.769Z,8.32
2022-08-20T08:48:18.268Z,8.63
2022-08-20T08:50:54.642Z,8.45
2022-08-20T08:53:27.717Z,8.70
2022-08-20T08:55:55.922Z,10.73
2022-08-20T08:58:24.171Z,10.25
2022-08-20T09:00:56.083Z,11.32
2022-08-20T09:03:29.399Z,9.85
2022-08-20T09:06:06.327Z,9.68
2022-08-20T09:08:44.937Z,9.95
2022-08-20T09:11:12.923Z,9.60
2022-08-20T09:13:40.872Z,9.30
2022-08-20T09:16:08.838Z,6.88
2022-08-20T09:18:36.898Z,6.18
2022-08-20T09:21:07.032Z,5.40
2022-08-20T09:23:35.781Z,6.22
2022-08-20T09:26:03.717Z,5.68
2022-08-20T09:28:32.454Z,6.60
2022-08-20T09:31:03.382Z,6.22
2022-08-20T09:33:32.714Z,6.20
2022-08-20T09:36:00.821Z,5.90
2022-08-20T09:38:30.159Z,6.15
2022-08-20T09:40:58.192Z,5.45
2022-08-20T09:43:26.482Z,5.88
2022-08-20T09:45:54.405Z,5.00
2022-08-20T09:48:31.995Z,4.57
2022-08-20T09:51:00.415Z,5.00
2022-08-20T09:53:30.984Z,5.15
2022-08-20T09:56:00.179Z,4.22
2022-08-20T09:58:35.790Z,5.28
2022-08-20T10:01:13.870Z,5.57
2022-08-20T10:03:42.625Z,5.82
2022-08-20T10:06:11.436Z,5.53
2022-08-20T10:08:40.926Z,4.85
2022-08-20T10:11:08.877Z,3.70
2022-08-20T10:13:36.861Z,3.67
2022-08-20T10:16:05.690Z,3.65
2022-08-20T10:18:33.792Z,3.53
2022-08-20T10:21:01.715Z,2.83
2022-08-20T10:23:29.815Z,3.35
2022-08-20T10:25:59.226Z,3.38
2022-08-20T10:28:27.174Z,3.40
2022-08-20T10:30:55.103Z,2.78
2022-08-20T10:33:23.124Z,2.58
2022-08-20T10:35:51.069Z,3.20
2022-08-20T10:38:22.741Z,3.13
2022-08-20T10:40:52.158Z,3.45
2022-08-20T10:43:22.046Z,3.15
2022-08-20T10:45:50.066Z,2.97
2022-08-20T10:48:21.408Z,2.63
2022-08-20T10:50:49.980Z,3.47
2022-08-20T10:53:18.013Z,3.05
2022-08-20T10:55:46.429Z,3.00
2022-08-20T10:58:14.622Z,3.60
2022-08-20T11:00:45.780Z,3.00
2022-08-20T11:03:13.757Z,2.88
2022-08-20T11:05:41.781Z,1.35
2022-08-20T11:08:09.884Z,2.47
2022-08-20T11:10:38.916Z,1.15
2022-08-20T11:13:08.649Z,0.80
2022-08-20T11:15:39.659Z,0.98
2022-08-20T11:18:10.560Z,0.90
2022-08-20T11:20:38.584Z,0.40
2022-08-20T11:23:06.774Z,0.40
2022-08-20T11:25:34.788Z,0.40
2022-08-20T11:28:03.493Z,0.50
2022-08-20T11:30:34.285Z,0.55
2022-08-20T11:33:03.752Z,0.40
2022-08-20T11:35:48.576Z,0.30
2022-08-20T11:38:18.040Z,0.40
2022-08-20T11:40:46.670Z,0.45
2022-08-20T11:43:16.274Z,0.50
2022-08-20T11:45:45.500Z,0.43
2022-08-20T11:48:13.514Z,0.50
2022-08-20T11:50:43.029Z,0.47
2022-08-20T11:53:11.169Z,0.38
2022-08-20T11:55:39.560Z,0.50
2022-08-20T11:58:08.236Z,0.63
2022-08-20T12:00:36.896Z,0.80
2022-08-20T12:03:08.727Z,0.88
2022-08-20T12:05:37.674Z,0.50
2022-08-20T12:08:08.403Z,0.70
2022-08-20T12:10:37.076Z,0.60
2022-08-20T12:13:05.295Z,0.60
2022-08-20T12:15:33.397Z,0.60
2022-08-20T12:18:01.636Z,0.70
2022-08-20T12:20:29.588Z,0.60
2022-08-20T12:22:58.951Z,0.77
2022-08-20T12:25:28.772Z,0.57
2022-08-20T12:27:56.821Z,0.70
2022-08-20T12:30:25.609Z,0.63
2022-08-20T12:32:53.608Z,0.73
2022-08-20T12:35:21.847Z,0.98
2022-08-20T12:37:50.005Z,0.90
2022-08-20T12:40:24.458Z,0.60
2022-08-20T12:43:00.855Z,0.82
2022-08-20T12:45:28.819Z,0.75
2022-08-20T12:48:03.231Z,1.00
2022-08-20T12:50:32.137Z,1.00
2022-08-20T12:53:00.499Z,1.25
2022-08-20T12:55:29.726Z,1.17
2022-08-20T12:58:00.347Z,1.48
2022-08-20T13:00:32.800Z,1.40
2022-08-20T13:03:03.828Z,1.42
2022-08-20T13:05:33.084Z,1.52
2022-08-20T13:08:01.325Z,1.30
2022-08-20T13:10:31.325Z,1.55
2022-08-20T13:13:01.888Z,1.60
2022-08-20T13:15:32.823Z,1.50
2022-08-20T13:18:04.672Z,0.70
2022-08-20T13:20:34.415Z,0.80
2022-08-20T13:23:03.881Z,0.40
2022-08-20T13:25:32.273Z,0.57
2022-08-20T13:28:02.317Z,0.50
2022-08-20T13:30:32.904Z,0.57
2022-08-20T13:33:00.866Z,0.50
2022-08-20T13:35:28.864Z,0.55
2022-08-20T13:37:57.006Z,0.70
2022-08-20T13:40:25.929Z,0.90
2022-08-20T13:42:53.943Z,0.70
2022-08-20T13:45:22.000Z,0.65
2022-08-20T13:47:54.081Z,0.60
2022-08-20T13:50:25.258Z,0.90
2022-08-20T13:52:53.553Z,0.80
2022-08-20T13:55:23.403Z,0.70
2022-08-20T13:57:52.378Z,0.82
2022-08-20T14:00:26.416Z,0.70
2022-08-20T14:03:02.380Z,0.90
2022-08-20T14:05:31.711Z,0.90
2022-08-20T14:08:07.961Z,0.60
2022-08-20T14:10:36.565Z,0.70
2022-08-20T14:13:06.770Z,0.60
2022-08-20T14:15:35.566Z,0.80
2022-08-20T14:18:05.466Z,0.63
2022-08-20T14:20:35.466Z,0.90
2022-08-20T14:23:06.999Z,0.90
2022-08-20T14:25:35.514Z,0.80
2022-08-20T14:28:11.708Z,0.70
2022-08-20T14:30:39.996Z,0.52
2022-08-20T14:33:09.483Z,0.57
2022-08-20T14:35:37.566Z,0.63
2022-08-20T14:38:06.035Z,0.60
2022-08-20T14:40:34.633Z,0.57
2022-08-20T14:43:03.387Z,0.70
2022-08-20T14:45:31.363Z,0.90
2022-08-20T14:48:00.245Z,0.73
2022-08-20T14:50:32.166Z,0.95
2022-08-20T14:53:00.885Z,0.80
2022-08-20T14:55:31.175Z,0.90
2022-08-20T14:57:59.604Z,0.73
2022-08-20T15:00:30.773Z,1.20
2022-08-20T15:02:59.108Z,0.75
2022-08-20T15:05:27.717Z,0.75
2022-08-20T15:07:59.590Z,0.80
2022-08-20T15:10:30.233Z,0.80
2022-08-20T15:12:58.719Z,0.52
2022-08-20T15:15:27.286Z,0.68
2022-08-20T15:17:57.668Z,0.45
2022-08-20T15:20:28.598Z,0.60
2022-08-20T15:22:56.902Z,0.75
2022-08-20T15:25:36.770Z,0.60
2022-08-20T15:28:08.229Z,0.50
2022-08-20T15:30:37.564Z,0.70
2022-08-20T15:33:05.635Z,0.50
2022-08-20T15:35:33.730Z,0.77
2022-08-20T15:38:01.777Z,0.70
2022-08-20T15:40:33.220Z,0.65
2022-08-20T15:43:03.625Z,0.50
2022-08-20T15:45:32.092Z,0.93
2022-08-20T15:48:09.167Z,0.82
2022-08-20T15:51:03.051Z,0.60
2022-08-20T15:53:38.214Z,0.77
2022-08-20T15:56:16.493Z,0.80
2022-08-20T15:58:55.043Z,0.73
2022-08-20T16:01:33.657Z,0.63
2022-08-20T16:04:21.815Z,0.60
2022-08-20T16:06:52.977Z,0.50
2022-08-20T16:09:39.293Z,0.63
2022-08-20T16:12:12.164Z,0.60
2022-08-20T16:14:42.216Z,0.50
2022-08-20T16:17:13.217Z,0.50
2022-08-20T16:19:49.784Z,0.70
2022-08-20T16:22:19.482Z,0.55
2022-08-20T16:24:47.823Z,0.75
2022-08-20T16:27:28.399Z,0.55
2022-08-20T16:30:04.163Z,0.60
2022-08-20T16:32:41.270Z,0.70
2022-08-20T16:35:29.657Z,0.70
2022-08-20T16:38:05.025Z,0.60
2022-08-20T16:40:36.728Z,0.57
2022-08-20T16:43:08.292Z,0.60
2022-08-20T16:45:43.466Z,1.20
2022-08-20T16:48:13.869Z,0.77
2022-08-20T16:50:59.003Z,1.02
2022-08-20T16:53:28.402Z,0.75
2022-08-20T16:55:58.584Z,0.77
2022-08-20T16:58:27.896Z,0.80
2022-08-20T17:01:08.747Z,0.63
2022-08-20T17:03:40.670Z,0.70
2022-08-20T17:06:18.694Z,0.60
2022-08-20T17:08:51.211Z,1.10
2022-08-20T17:11:26.211Z,0.60
2022-08-20T17:14:07.499Z,1.00
2022-08-20T17:16:38.555Z,0.70
2022-08-20T17:19:18.550Z,0.70
2022-08-20T17:21:50.171Z,0.85
2022-08-20T17:24:23.847Z,0.85
2022-08-20T17:26:59.458Z,1.00
2022-08-20T17:29:31.815Z,0.80
2022-08-20T17:32:02.329Z,0.80
2022-08-20T17:34:32.713Z,0.70
2022-08-20T17:37:05.704Z,0.63
2022-08-20T17:39:34.108Z,0.70
2022-08-20T17:42:08.859Z,0.50
2022-08-20T17:44:46.451Z,0.50
2022-08-20T17:47:17.611Z,0.65
2022-08-20T17:49:54.978Z,0.52
2022-08-20T17:52:35.795Z,0.40
2022-08-20T17:55:04.571Z,0.73
2022-08-20T17:57:38.416Z,0.47
2022-08-20T18:00:14.170Z,0.75
2022-08-20T18:02:42.492Z,0.40
2022-08-20T18:05:15.531Z,0.52
2022-08-20T18:07:54.172Z,0.30
2022-08-20T18:10:25.816Z,0.30
2022-08-20T18:13:17.925Z,0.38
2022-08-20T18:15:51.904Z,0.30
2022-08-20T18:18:29.370Z,0.40
2022-08-20T18:21:15.861Z,0.52
2022-08-20T18:23:48.596Z,0.30
2022-08-20T18:26:22.363Z,0.40
2022-08-20T18:28:54.297Z,0.50
2022-08-20T18:31:32.397Z,0.50
2022-08-20T18:34:11.235Z,0.30
2022-08-20T18:36:39.216Z,0.50
2022-08-20T18:39:09.687Z,0.40
2022-08-20T18:41:39.845Z,0.30
2022-08-20T18:44:10.760Z,0.50
2022-08-20T18:46:52.827Z,0.50
2022-08-20T18:49:30.241Z,0.40
2022-08-20T18:51:59.380Z,0.40
2022-08-20T18:54:30.772Z,0.50
2022-08-20T18:57:08.486Z,0.40
2022-08-20T18:59:43.890Z,0.90
2022-08-20T19:02:22.652Z,0.40
2022-08-20T19:05:02.018Z,0.60
2022-08-20T19:07:47.911Z,0.52
2022-08-20T19:10:40.809Z,0.40
2022-08-20T19:13:20.573Z,0.50
2022-08-20T19:15:51.780Z,0.60
2022-08-20T19:18:28.346Z,0.55
2022-08-20T19:20:58.802Z,0.75
2022-08-20T19:23:30.147Z,0.45
2022-08-20T19:26:00.891Z,0.68
2022-08-20T19:28:32.231Z,0.55
2022-08-20T19:31:11.043Z,0.70
2022-08-20T19:33:44.018Z,0.57
2022-08-20T19:36:16.312Z,0.77
2022-08-20T19:38:49.940Z,0.60
2022-08-20T19:41:30.887Z,0.55
2022-08-20T19:43:59.803Z,0.70
2022-08-20T19:46:32.284Z,0.80
2022-08-20T19:49:20.639Z,0.60
2022-08-20T19:51:58.425Z,0.85
2022-08-20T19:54:29.463Z,0.70
2022-08-20T19:56:58.783Z,0.65
2022-08-20T19:59:27.123Z,0.60
2022-08-20T20:02:00.341Z,0.55
2022-08-20T20:04:37.338Z,0.50
2022-08-20T20:07:09.811Z,0.65
2022-08-20T20:09:42.460Z,0.80
2022-08-20T20:12:22.848Z,0.68
2022-08-20T20:14:52.644Z,0.70
2022-08-20T20:17:23.693Z,0.80
2022-08-20T20:19:59.171Z,1.00
2022-08-20T20:22:29.621Z,0.75
2022-08-20T20:25:06.209Z,0.70
2022-08-20T20:27:36.538Z,0.60
2022-08-20T20:30:13.449Z,0.60
2022-08-20T20:32:45.350Z,0.73
2022-08-20T20:35:26.655Z,0.40
2022-08-20T20:38:00.451Z,0.60
2022-08-20T20:40:33.956Z,0.80
2022-08-20T20:43:06.981Z,0.55
2022-08-20T20:45:36.679Z,0.50
2022-08-20T20:48:18.102Z,0.57
2022-08-20T20:50:48.519Z,0.73
2022-08-20T20:53:47.430Z,0.60
2022-08-20T20:56:27.929Z,0.60
2022-08-20T20:58:56.394Z,0.75
2022-08-20T21:01:45.693Z,0.70
2022-08-20T21:04:12.655Z,0.60
2022-08-20T21:06:42.007Z,0.50
2022-08-20T21:09:10.230Z,0.70
2022-08-20T21:11:38.324Z,0.70
2022-08-20T21:14:06.331Z,0.68
2022-08-20T21:16:34.287Z,0.50
2022-08-20T21:19:03.271Z,0.65
2022-08-20T21:21:31.256Z,0.68
2022-08-20T21:24:00.559Z,0.70
2022-08-20T21:26:29.583Z,0.60
2022-08-20T21:28:57.623Z,0.60
2022-08-20T21:31:31.513Z,0.68
2022-08-20T21:33:59.523Z,0.77
2022-08-20T21:36:27.708Z,0.60
2022-08-20T21:38:55.809Z,0.70
2022-08-20T21:41:29.890Z,0.90
2022-08-20T21:43:58.641Z,0.88
2022-08-20T21:46:28.750Z,0.60
2022-08-20T21:48:57.429Z,0.77
2022-08-20T21:51:25.425Z,0.60
2022-08-20T21:53:53.485Z,0.60
2022-08-20T21:56:22.571Z,0.60
2022-08-20T21:58:53.157Z,0.77
2022-08-20T22:01:24.013Z,0.80
2022-08-20T22:03:52.174Z,0.90
2022-08-20T22:06:20.838Z,0.60
2022-08-20T22:08:48.852Z,0.88
2022-08-20T22:11:17.513Z,0.70
2022-08-20T22:13:46.633Z,0.95
2022-08-20T22:16:18.597Z,0.80
2022-08-20T22:18:47.166Z,0.80
2022-08-20T22:21:19.548Z,0.60
2022-08-20T22:23:48.028Z,0.68
2022-08-20T22:26:17.265Z,0.50
2022-08-20T22:28:45.628Z,0.80
2022-08-20T22:31:24.232Z,0.90
2022-08-20T22:33:52.309Z,0.70
2022-08-20T22:36:20.362Z,0.90
2022-08-20T22:38:54.457Z,1.02
2022-08-20T22:41:23.146Z,0.65
2022-08-20T22:43:56.533Z,0.75
2022-08-20T22:46:28.583Z,0.82
2022-08-20T22:48:57.687Z,0.85
2022-08-20T22:51:30.242Z,0.98
2022-08-20T22:53:58.825Z,0.70
2022-08-20T22:56:27.145Z,0.98
2022-08-20T22:58:59.409Z,0.90
2022-08-20T23:01:29.875Z,0.70
2022-08-20T23:04:03.408Z,0.70
2022-08-20T23:06:31.962Z,0.70
2022-08-20T23:09:00.213Z,0.70
2022-08-20T23:11:28.197Z,0.73
2022-08-20T23:13:57.013Z,0.63
2022-08-20T23:16:25.526Z,0.50
2022-08-20T23:18:55.343Z,0.75
2022-08-20T23:21:23.397Z,0.60
2022-08-20T23:23:51.472Z,0.70
2022-08-20T23:26:22.714Z,0.80
2022-08-20T23:28:50.764Z,0.80
2022-08-20T23:31:18.989Z,0.65
2022-08-20T23:33:47.070Z,0.70
2022-08-20T23:36:19.567Z,0.80
2022-08-20T23:38:47.607Z,0.80
2022-08-20T23:41:15.653Z,0.80
2022-08-20T23:43:44.120Z,0.70
2022-08-20T23:46:12.733Z,0.70
2022-08-20T23:48:40.886Z,0.88
2022-08-20T23:51:08.878Z,0.70
2022-08-20T23:53:38.781Z,0.80
2022-08-20T23:56:07.093Z,0.82
2022-08-20T23:58:35.120Z,0.93
